KRNT - Renton
Updated: Tue, 20-Aug-2019 3:53pm PDT

 Wind from S
Wind: S 9 mph , 15 km/h
Temperature: 81°F , 27°C
Heat Index: 81°F , 27°C
Dew Point: 55°F , 13°C
Humidity: 42%
Barometer: 29.89 inHg , 1012.2 hPa
Visibility: 10 miles , 16 km
2019/08/20 22:53 KRNT 202253Z 18008KT 10SM CLR 27/13 A2989 RMK AO2 SLP127 T02720133
KBFI - Seattle-Boeing
Updated: Tue, 20-Aug-2019 3:53pm PDT

 Wind from varies
Wind: varies 3 mph , 6 km/h
Temperature: 81°F , 27°C
Dew Point: 54°F , 12°C
Humidity: 39%
Barometer: 29.89 inHg , 1012.2 hPa
Visibility: 10 miles , 16 km
Cloud details: 15000 ft
20000 ft
2019/08/20 22:53 KBFI 202253Z VRB03KT 10SM SCT150 BKN200 27/12 A2989 RMK AO2 SLP121 T02670122
 
KSEA - Seattle
Updated: Tue, 20-Aug-2019 3:53pm PDT

 Wind from SSE
Wind: SSE 7 mph , 11 km/h
Temperature: 81°F , 27°C
Heat Index: 81°F , 27°C
Dew Point: 55°F , 13°C
Humidity: 42%
Barometer: 29.92 inHg , 1013.2 hPa
Visibility: 10 miles , 16 km
Cloud details: 22000 ft
2019/08/20 22:53 KSEA 202253Z 16006KT 10SM BKN220 27/13 A2992 RMK AO2 SLP134 T02670133
KSMP - Stampede Pass
Updated: Tue, 20-Aug-2019 3:56pm PDT

 Wind from SW
Wind: SW 6 mph , 9 km/h
Temperature: 70°F , 21°C
Dew Point: 54°F , 12°C
Humidity: 57%
Barometer: 30.04 inHg , 1017.3 hPa
Visibility: 10 miles , 16 km
2019/08/20 22:56 KSMP 202256Z AUTO 23005KT 10SM CLR 21/12 A3004 RMK AO2 SLP143 T02110117